sensor_id;sensor_type;location;lat;lon;timestamp;P1;durP1;ratioP1;P2;durP2;ratioP2
67721;SDS011;58309;45.292;11.820;2022-08-18T00:00:29;24.60;;;13.55;;
67721;SDS011;58309;45.292;11.820;2022-08-18T00:02:57;25.15;;;14.18;;
67721;SDS011;58309;45.292;11.820;2022-08-18T00:05:29;25.73;;;13.63;;
67721;SDS011;58309;45.292;11.820;2022-08-18T00:07:55;28.67;;;14.88;;
67721;SDS011;58309;45.292;11.820;2022-08-18T00:10:21;26.15;;;15.13;;
67721;SDS011;58309;45.292;11.820;2022-08-18T00:12:47;24.75;;;14.38;;
67721;SDS011;58309;45.292;11.820;2022-08-18T00:15:13;32.95;;;15.52;;
67721;SDS011;58309;45.292;11.820;2022-08-18T00:17:40;27.48;;;15.65;;
67721;SDS011;58309;45.292;11.820;2022-08-18T00:20:08;23.52;;;14.95;;
67721;SDS011;58309;45.292;11.820;2022-08-18T00:22:36;25.70;;;14.57;;
67721;SDS011;58309;45.292;11.820;2022-08-18T00:25:04;32.25;;;17.00;;
67721;SDS011;58309;45.292;11.820;2022-08-18T00:27:31;33.83;;;18.13;;
67721;SDS011;58309;45.292;11.820;2022-08-18T00:29:59;30.98;;;17.88;;
67721;SDS011;58309;45.292;11.820;2022-08-18T00:32:30;40.42;;;18.35;;
67721;SDS011;58309;45.292;11.820;2022-08-18T00:35:04;36.58;;;19.35;;
67721;SDS011;58309;45.292;11.820;2022-08-18T00:37:34;38.17;;;20.88;;
67721;SDS011;58309;45.292;11.820;2022-08-18T00:40:00;45.42;;;22.10;;
67721;SDS011;58309;45.292;11.820;2022-08-18T00:42:28;47.97;;;21.92;;
67721;SDS011;58309;45.292;11.820;2022-08-18T00:44:54;46.05;;;22.27;;
67721;SDS011;58309;45.292;11.820;2022-08-18T00:47:21;50.63;;;22.63;;
67721;SDS011;58309;45.292;11.820;2022-08-18T00:49:46;50.90;;;23.08;;
67721;SDS011;58309;45.292;11.820;2022-08-18T00:52:16;47.95;;;21.98;;
67721;SDS011;58309;45.292;11.820;2022-08-18T00:54:43;43.05;;;21.30;;
67721;SDS011;58309;45.292;11.820;2022-08-18T00:57:10;53.03;;;24.17;;
67721;SDS011;58309;45.292;11.820;2022-08-18T00:59:43;50.65;;;24.73;;
67721;SDS011;58309;45.292;11.820;2022-08-18T01:02:21;55.78;;;25.67;;
67721;SDS011;58309;45.292;11.820;2022-08-18T01:04:58;54.92;;;25.83;;
67721;SDS011;58309;45.292;11.820;2022-08-18T01:07:31;53.95;;;25.63;;
67721;SDS011;58309;45.292;11.820;2022-08-18T01:10:03;45.08;;;23.92;;
67721;SDS011;58309;45.292;11.820;2022-08-18T01:12:30;57.28;;;26.80;;
67721;SDS011;58309;45.292;11.820;2022-08-18T01:14:57;56.33;;;27.77;;
67721;SDS011;58309;45.292;11.820;2022-08-18T01:17:23;59.25;;;27.58;;
67721;SDS011;58309;45.292;11.820;2022-08-18T01:20:11;63.08;;;27.02;;
67721;SDS011;58309;45.292;11.820;2022-08-18T01:23:01;63.13;;;27.42;;
67721;SDS011;58309;45.292;11.820;2022-08-18T01:25:33;67.10;;;28.38;;
67721;SDS011;58309;45.292;11.820;2022-08-18T01:28:19;74.15;;;29.20;;
67721;SDS011;58309;45.292;11.820;2022-08-18T01:30:48;69.38;;;29.65;;
67721;SDS011;58309;45.292;11.820;2022-08-18T01:33:26;71.15;;;28.50;;
67721;SDS011;58309;45.292;11.820;2022-08-18T01:35:56;75.38;;;30.38;;
67721;SDS011;58309;45.292;11.820;2022-08-18T01:38:24;74.50;;;30.20;;
67721;SDS011;58309;45.292;11.820;2022-08-18T01:40:50;76.75;;;30.27;;
67721;SDS011;58309;45.292;11.820;2022-08-18T01:43:16;75.05;;;30.45;;
67721;SDS011;58309;45.292;11.820;2022-08-18T01:45:42;74.20;;;29.27;;
67721;SDS011;58309;45.292;11.820;2022-08-18T01:48:08;74.38;;;30.73;;
67721;SDS011;58309;45.292;11.820;2022-08-18T01:50:34;74.93;;;32.40;;
67721;SDS011;58309;45.292;11.820;2022-08-18T01:53:04;85.32;;;33.80;;
67721;SDS011;58309;45.292;11.820;2022-08-18T01:55:34;93.47;;;35.00;;
67721;SDS011;58309;45.292;11.820;2022-08-18T01:58:01;97.43;;;36.75;;
67721;SDS011;58309;45.292;11.820;2022-08-18T02:00:27;96.30;;;37.78;;
67721;SDS011;58309;45.292;11.820;2022-08-18T02:02:53;107.32;;;40.22;;
67721;SDS011;58309;45.292;11.820;2022-08-18T02:05:28;100.10;;;39.70;;
67721;SDS011;58309;45.292;11.820;2022-08-18T02:07:57;97.15;;;38.60;;
67721;SDS011;58309;45.292;11.820;2022-08-18T02:10:23;99.97;;;38.42;;
67721;SDS011;58309;45.292;11.820;2022-08-18T02:12:49;99.60;;;39.05;;
67721;SDS011;58309;45.292;11.820;2022-08-18T02:15:14;107.78;;;41.80;;
67721;SDS011;58309;45.292;11.820;2022-08-18T02:17:41;109.43;;;41.22;;
67721;SDS011;58309;45.292;11.820;2022-08-18T02:20:10;108.20;;;43.00;;
67721;SDS011;58309;45.292;11.820;2022-08-18T02:22:38;121.55;;;45.05;;
67721;SDS011;58309;45.292;11.820;2022-08-18T02:25:03;110.68;;;41.45;;
67721;SDS011;58309;45.292;11.820;2022-08-18T02:27:29;123.47;;;45.10;;
67721;SDS011;58309;45.292;11.820;2022-08-18T02:29:55;117.47;;;45.85;;
67721;SDS011;58309;45.292;11.820;2022-08-18T02:32:23;121.00;;;46.75;;
67721;SDS011;58309;45.292;11.820;2022-08-18T02:34:49;123.35;;;45.63;;
67721;SDS011;58309;45.292;11.820;2022-08-18T02:37:14;116.32;;;45.55;;
67721;SDS011;58309;45.292;11.820;2022-08-18T02:42:14;101.63;;;43.33;;
67721;SDS011;58309;45.292;11.820;2022-08-18T02:44:40;107.00;;;43.20;;
67721;SDS011;58309;45.292;11.820;2022-08-18T02:47:06;102.97;;;43.67;;
67721;SDS011;58309;45.292;11.820;2022-08-18T02:49:31;103.57;;;42.45;;
67721;SDS011;58309;45.292;11.820;2022-08-18T02:51:57;114.10;;;43.80;;
67721;SDS011;58309;45.292;11.820;2022-08-18T02:54:23;114.45;;;43.83;;
67721;SDS011;58309;45.292;11.820;2022-08-18T02:56:49;106.72;;;43.28;;
67721;SDS011;58309;45.292;11.820;2022-08-18T02:59:17;105.68;;;45.50;;
67721;SDS011;58309;45.292;11.820;2022-08-18T03:01:46;104.13;;;43.78;;
67721;SDS011;58309;45.292;11.820;2022-08-18T03:04:17;97.55;;;43.83;;
67721;SDS011;58309;45.292;11.820;2022-08-18T03:06:47;101.90;;;44.05;;
67721;SDS011;58309;45.292;11.820;2022-08-18T03:09:14;89.95;;;43.38;;
67721;SDS011;58309;45.292;11.820;2022-08-18T03:11:41;94.35;;;43.72;;
67721;SDS011;58309;45.292;11.820;2022-08-18T03:14:07;86.85;;;42.35;;
67721;SDS011;58309;45.292;11.820;2022-08-18T03:16:33;89.38;;;42.38;;
67721;SDS011;58309;45.292;11.820;2022-08-18T03:19:02;81.20;;;39.40;;
67721;SDS011;58309;45.292;11.820;2022-08-18T03:21:28;84.70;;;40.65;;
67721;SDS011;58309;45.292;11.820;2022-08-18T03:23:55;80.55;;;39.45;;
67721;SDS011;58309;45.292;11.820;2022-08-18T03:26:22;83.72;;;39.00;;
67721;SDS011;58309;45.292;11.820;2022-08-18T03:28:49;87.57;;;41.22;;
67721;SDS011;58309;45.292;11.820;2022-08-18T03:31:18;85.88;;;40.30;;
67721;SDS011;58309;45.292;11.820;2022-08-18T03:33:44;94.38;;;44.20;;
67721;SDS011;58309;45.292;11.820;2022-08-18T03:36:12;98.88;;;44.28;;
67721;SDS011;58309;45.292;11.820;2022-08-18T03:38:40;104.72;;;47.33;;
67721;SDS011;58309;45.292;11.820;2022-08-18T03:41:07;97.45;;;42.80;;
67721;SDS011;58309;45.292;11.820;2022-08-18T03:43:34;75.57;;;39.53;;
67721;SDS011;58309;45.292;11.820;2022-08-18T03:46:05;93.35;;;43.30;;
67721;SDS011;58309;45.292;11.820;2022-08-18T03:48:36;100.07;;;41.83;;
67721;SDS011;58309;45.292;11.820;2022-08-18T03:51:14;77.93;;;37.97;;
67721;SDS011;58309;45.292;11.820;2022-08-18T03:53:42;72.55;;;39.17;;
67721;SDS011;58309;45.292;11.820;2022-08-18T03:56:10;64.80;;;37.25;;
67721;SDS011;58309;45.292;11.820;2022-08-18T03:59:02;57.42;;;35.67;;
67721;SDS011;58309;45.292;11.820;2022-08-18T04:01:32;30.38;;;21.38;;
67721;SDS011;58309;45.292;11.820;2022-08-18T04:04:03;36.25;;;24.23;;
67721;SDS011;58309;45.292;11.820;2022-08-18T04:06:41;32.05;;;21.48;;
67721;SDS011;58309;45.292;11.820;2022-08-18T04:09:10;32.22;;;20.83;;
67721;SDS011;58309;45.292;11.820;2022-08-18T04:11:37;38.08;;;23.27;;
67721;SDS011;58309;45.292;11.820;2022-08-18T04:16:32;48.03;;;27.38;;
67721;SDS011;58309;45.292;11.820;2022-08-18T04:18:58;41.90;;;27.73;;
67721;SDS011;58309;45.292;11.820;2022-08-18T04:21:27;44.67;;;26.45;;
67721;SDS011;58309;45.292;11.820;2022-08-18T04:23:56;43.38;;;26.27;;
67721;SDS011;58309;45.292;11.820;2022-08-18T04:26:23;43.67;;;26.48;;
67721;SDS011;58309;45.292;11.820;2022-08-18T04:28:49;42.65;;;25.23;;
67721;SDS011;58309;45.292;11.820;2022-08-18T04:31:15;41.50;;;23.92;;
67721;SDS011;58309;45.292;11.820;2022-08-18T04:33:42;40.83;;;24.13;;
67721;SDS011;58309;45.292;11.820;2022-08-18T04:36:17;28.27;;;19.60;;
67721;SDS011;58309;45.292;11.820;2022-08-18T04:38:42;20.10;;;15.95;;
67721;SDS011;58309;45.292;11.820;2022-08-18T04:41:09;21.50;;;15.32;;
67721;SDS011;58309;45.292;11.820;2022-08-18T04:43:36;22.05;;;14.32;;
67721;SDS011;58309;45.292;11.820;2022-08-18T04:46:02;21.85;;;12.70;;
67721;SDS011;58309;45.292;11.820;2022-08-18T04:48:32;20.05;;;11.52;;
67721;SDS011;58309;45.292;11.820;2022-08-18T04:51:06;18.60;;;10.55;;
67721;SDS011;58309;45.292;11.820;2022-08-18T04:53:35;16.45;;;10.48;;
67721;SDS011;58309;45.292;11.820;2022-08-18T04:56:15;15.52;;;10.05;;
67721;SDS011;58309;45.292;11.820;2022-08-18T04:58:49;16.38;;;10.43;;
67721;SDS011;58309;45.292;11.820;2022-08-18T05:01:17;17.90;;;11.52;;
67721;SDS011;58309;45.292;11.820;2022-08-18T05:03:45;19.10;;;12.70;;
67721;SDS011;58309;45.292;11.820;2022-08-18T05:06:11;19.27;;;12.20;;
67721;SDS011;58309;45.292;11.820;2022-08-18T05:08:37;17.73;;;12.20;;
67721;SDS011;58309;45.292;11.820;2022-08-18T05:11:02;18.45;;;12.85;;
67721;SDS011;58309;45.292;11.820;2022-08-18T05:13:28;21.48;;;12.98;;
67721;SDS011;58309;45.292;11.820;2022-08-18T05:15:57;25.02;;;13.45;;
67721;SDS011;58309;45.292;11.820;2022-08-18T05:18:28;18.83;;;12.38;;
67721;SDS011;58309;45.292;11.820;2022-08-18T05:20:55;20.95;;;13.35;;
67721;SDS011;58309;45.292;11.820;2022-08-18T05:23:21;22.80;;;13.43;;
67721;SDS011;58309;45.292;11.820;2022-08-18T05:25:47;20.27;;;13.82;;
67721;SDS011;58309;45.292;11.820;2022-08-18T05:28:13;20.50;;;14.10;;
67721;SDS011;58309;45.292;11.820;2022-08-18T05:30:39;22.27;;;14.40;;
67721;SDS011;58309;45.292;11.820;2022-08-18T05:33:06;19.98;;;13.93;;
67721;SDS011;58309;45.292;11.820;2022-08-18T05:35:45;23.20;;;16.33;;
67721;SDS011;58309;45.292;11.820;2022-08-18T05:41:23;22.42;;;16.25;;
67721;SDS011;58309;45.292;11.820;2022-08-18T05:43:50;22.20;;;15.23;;
67721;SDS011;58309;45.292;11.820;2022-08-18T05:46:16;22.73;;;15.68;;
67721;SDS011;58309;45.292;11.820;2022-08-18T05:48:41;25.45;;;15.75;;
67721;SDS011;58309;45.292;11.820;2022-08-18T05:51:17;21.42;;;15.18;;
67721;SDS011;58309;45.292;11.820;2022-08-18T05:53:48;27.90;;;16.98;;
67721;SDS011;58309;45.292;11.820;2022-08-18T05:56:33;21.85;;;16.10;;
67721;SDS011;58309;45.292;11.820;2022-08-18T05:59:30;21.23;;;15.48;;
67721;SDS011;58309;45.292;11.820;2022-08-18T06:01:59;21.75;;;15.32;;
67721;SDS011;58309;45.292;11.820;2022-08-18T06:04:40;22.13;;;14.10;;
67721;SDS011;58309;45.292;11.820;2022-08-18T06:07:13;22.85;;;13.68;;
67721;SDS011;58309;45.292;11.820;2022-08-18T06:09:44;18.52;;;13.75;;
67721;SDS011;58309;45.292;11.820;2022-08-18T06:18:17;17.05;;;12.00;;
67721;SDS011;58309;45.292;11.820;2022-08-18T06:20:44;14.45;;;10.65;;
67721;SDS011;58309;45.292;11.820;2022-08-18T06:26:09;10.93;;;9.13;;
67721;SDS011;58309;45.292;11.820;2022-08-18T06:28:57;13.27;;;8.30;;
67721;SDS011;58309;45.292;11.820;2022-08-18T06:37:10;11.07;;;7.45;;
67721;SDS011;58309;45.292;11.820;2022-08-18T06:39:49;8.00;;;6.90;;
67721;SDS011;58309;45.292;11.820;2022-08-18T06:42:19;8.65;;;6.10;;
67721;SDS011;58309;45.292;11.820;2022-08-18T06:44:54;5.82;;;5.20;;
67721;SDS011;58309;45.292;11.820;2022-08-18T06:50:10;5.17;;;4.60;;
67721;SDS011;58309;45.292;11.820;2022-08-18T06:52:54;4.28;;;3.80;;
67721;SDS011;58309;45.292;11.820;2022-08-18T06:55:44;7.68;;;4.20;;
67721;SDS011;58309;45.292;11.820;2022-08-18T07:00:43;4.40;;;3.57;;
67721;SDS011;58309;45.292;11.820;2022-08-18T07:03:19;3.72;;;3.20;;
67721;SDS011;58309;45.292;11.820;2022-08-18T07:08:43;4.00;;;3.20;;
67721;SDS011;58309;45.292;11.820;2022-08-18T07:13:50;5.55;;;3.65;;
67721;SDS011;58309;45.292;11.820;2022-08-18T07:18:49;6.93;;;3.70;;
67721;SDS011;58309;45.292;11.820;2022-08-18T07:29:30;4.38;;;3.58;;
67721;SDS011;58309;45.292;11.820;2022-08-18T07:32:00;6.70;;;4.00;;
67721;SDS011;58309;45.292;11.820;2022-08-18T07:34:41;6.30;;;4.20;;
67721;SDS011;58309;45.292;11.820;2022-08-18T07:40:06;4.88;;;3.75;;
67721;SDS011;58309;45.292;11.820;2022-08-18T07:42:57;5.97;;;4.32;;
67721;SDS011;58309;45.292;11.820;2022-08-18T07:45:35;7.15;;;4.18;;
67721;SDS011;58309;45.292;11.820;2022-08-18T07:53:37;6.45;;;4.10;;
67721;SDS011;58309;45.292;11.820;2022-08-18T07:56:21;6.30;;;4.00;;
67721;SDS011;58309;45.292;11.820;2022-08-18T08:01:58;5.35;;;4.10;;
67721;SDS011;58309;45.292;11.820;2022-08-18T08:04:52;7.75;;;5.43;;
67721;SDS011;58309;45.292;11.820;2022-08-18T08:07:58;9.07;;;5.28;;
67721;SDS011;58309;45.292;11.820;2022-08-18T08:22:27;6.55;;;5.03;;
67721;SDS011;58309;45.292;11.820;2022-08-18T08:30:24;11.73;;;6.22;;
67721;SDS011;58309;45.292;11.820;2022-08-18T08:35:52;9.55;;;5.50;;
67721;SDS011;58309;45.292;11.820;2022-08-18T08:43:48;6.13;;;3.90;;
67721;SDS011;58309;45.292;11.820;2022-08-18T08:46:27;8.70;;;3.28;;
67721;SDS011;58309;45.292;11.820;2022-08-18T08:49:00;7.88;;;3.33;;
67721;SDS011;58309;45.292;11.820;2022-08-18T08:51:38;4.75;;;2.72;;
67721;SDS011;58309;45.292;11.820;2022-08-18T08:54:30;7.57;;;2.40;;
67721;SDS011;58309;45.292;11.820;2022-08-18T08:57:04;7.10;;;2.65;;
67721;SDS011;58309;45.292;11.820;2022-08-18T08:59:32;5.88;;;2.70;;
67721;SDS011;58309;45.292;11.820;2022-08-18T09:21:03;3.55;;;1.60;;
67721;SDS011;58309;45.292;11.820;2022-08-18T09:23:49;6.38;;;1.90;;
67721;SDS011;58309;45.292;11.820;2022-08-18T09:29:23;6.63;;;1.80;;
67721;SDS011;58309;45.292;11.820;2022-08-18T09:40:47;3.22;;;1.75;;
67721;SDS011;58309;45.292;11.820;2022-08-18T09:43:51;9.70;;;1.85;;
67721;SDS011;58309;45.292;11.820;2022-08-18T09:51:46;4.93;;;2.00;;
67721;SDS011;58309;45.292;11.820;2022-08-18T09:54:13;4.80;;;2.00;;
67721;SDS011;58309;45.292;11.820;2022-08-18T10:02:02;8.20;;;2.50;;
67721;SDS011;58309;45.292;11.820;2022-08-18T10:10:03;8.82;;;2.80;;
67721;SDS011;58309;45.292;11.820;2022-08-18T10:12:49;10.02;;;3.85;;
67721;SDS011;58309;45.292;11.820;2022-08-18T10:21:11;9.40;;;3.58;;
67721;SDS011;58309;45.292;11.820;2022-08-18T10:23:53;9.35;;;4.00;;
67721;SDS011;58309;45.292;11.820;2022-08-18T10:29:05;12.95;;;5.10;;
67721;SDS011;58309;45.292;11.820;2022-08-18T10:37:10;9.48;;;5.15;;
67721;SDS011;58309;45.292;11.820;2022-08-18T10:42:17;17.92;;;6.22;;
67721;SDS011;58309;45.292;11.820;2022-08-18T10:47:35;12.90;;;3.40;;
67721;SDS011;58309;45.292;11.820;2022-08-18T10:50:03;6.97;;;1.98;;
67721;SDS011;58309;45.292;11.820;2022-08-18T10:55:19;6.50;;;2.30;;
67721;SDS011;58309;45.292;11.820;2022-08-18T11:06:09;7.95;;;3.40;;
67721;SDS011;58309;45.292;11.820;2022-08-18T11:08:45;12.43;;;4.22;;
67721;SDS011;58309;45.292;11.820;2022-08-18T11:11:14;8.75;;;4.00;;
67721;SDS011;58309;45.292;11.820;2022-08-18T11:19:11;7.93;;;4.22;;
67721;SDS011;58309;45.292;11.820;2022-08-18T11:21:42;8.45;;;4.40;;
67721;SDS011;58309;45.292;11.820;2022-08-18T11:26:59;12.85;;;5.20;;
67721;SDS011;58309;45.292;11.820;2022-08-18T11:29:41;9.85;;;5.43;;
67721;SDS011;58309;45.292;11.820;2022-08-18T11:32:11;11.68;;;5.80;;
67721;SDS011;58309;45.292;11.820;2022-08-18T11:35:12;8.80;;;3.63;;
67721;SDS011;58309;45.292;11.820;2022-08-18T11:42:52;3.53;;;1.70;;
67721;SDS011;58309;45.292;11.820;2022-08-18T11:45:34;4.47;;;1.50;;
67721;SDS011;58309;45.292;11.820;2022-08-18T11:53:23;6.85;;;2.03;;
67721;SDS011;58309;45.292;11.820;2022-08-18T12:06:38;9.65;;;2.65;;
67721;SDS011;58309;45.292;11.820;2022-08-18T12:09:32;18.00;;;2.85;;
67721;SDS011;58309;45.292;11.820;2022-08-18T12:17:24;17.48;;;3.25;;
67721;SDS011;58309;45.292;11.820;2022-08-18T12:19:51;14.57;;;2.42;;
67721;SDS011;58309;45.292;11.820;2022-08-18T12:22:27;10.98;;;2.65;;
67721;SDS011;58309;45.292;11.820;2022-08-18T12:24:55;13.77;;;3.20;;
67721;SDS011;58309;45.292;11.820;2022-08-18T12:30:13;17.88;;;3.10;;
67721;SDS011;58309;45.292;11.820;2022-08-18T12:32:40;15.77;;;3.08;;
67721;SDS011;58309;45.292;11.820;2022-08-18T12:35:06;18.58;;;3.45;;
67721;SDS011;58309;45.292;11.820;2022-08-18T12:37:35;19.15;;;3.03;;
67721;SDS011;58309;45.292;11.820;2022-08-18T12:40:02;21.48;;;3.60;;
67721;SDS011;58309;45.292;11.820;2022-08-18T12:42:34;13.60;;;3.30;;
67721;SDS011;58309;45.292;11.820;2022-08-18T12:45:01;14.55;;;3.25;;
67721;SDS011;58309;45.292;11.820;2022-08-18T12:47:31;18.20;;;2.90;;
67721;SDS011;58309;45.292;11.820;2022-08-18T12:50:06;10.88;;;2.67;;
67721;SDS011;58309;45.292;11.820;2022-08-18T12:52:32;13.15;;;2.95;;
67721;SDS011;58309;45.292;11.820;2022-08-18T12:54:59;16.83;;;3.08;;
67721;SDS011;58309;45.292;11.820;2022-08-18T12:57:26;14.57;;;3.28;;
67721;SDS011;58309;45.292;11.820;2022-08-18T12:59:52;13.95;;;2.78;;
67721;SDS011;58309;45.292;11.820;2022-08-18T13:02:21;17.65;;;3.35;;
67721;SDS011;58309;45.292;11.820;2022-08-18T13:04:46;13.65;;;2.83;;
67721;SDS011;58309;45.292;11.820;2022-08-18T13:07:12;18.67;;;3.20;;
67721;SDS011;58309;45.292;11.820;2022-08-18T13:09:40;16.65;;;3.13;;
67721;SDS011;58309;45.292;11.820;2022-08-18T13:12:06;18.10;;;3.20;;
67721;SDS011;58309;45.292;11.820;2022-08-18T13:14:33;19.90;;;3.50;;
67721;SDS011;58309;45.292;11.820;2022-08-18T13:16:59;17.67;;;3.30;;
67721;SDS011;58309;45.292;11.820;2022-08-18T13:19:25;17.48;;;3.38;;
67721;SDS011;58309;45.292;11.820;2022-08-18T13:21:51;18.33;;;3.22;;
67721;SDS011;58309;45.292;11.820;2022-08-18T13:24:16;19.77;;;3.15;;
67721;SDS011;58309;45.292;11.820;2022-08-18T13:26:43;16.50;;;3.03;;
67721;SDS011;58309;45.292;11.820;2022-08-18T13:29:10;17.30;;;3.28;;
67721;SDS011;58309;45.292;11.820;2022-08-18T13:31:37;17.40;;;3.70;;
67721;SDS011;58309;45.292;11.820;2022-08-18T13:34:03;18.98;;;3.30;;
67721;SDS011;58309;45.292;11.820;2022-08-18T13:36:31;16.45;;;3.40;;
67721;SDS011;58309;45.292;11.820;2022-08-18T13:39:12;19.77;;;3.63;;
67721;SDS011;58309;45.292;11.820;2022-08-18T13:41:48;22.17;;;3.83;;
67721;SDS011;58309;45.292;11.820;2022-08-18T13:44:16;22.63;;;4.10;;
67721;SDS011;58309;45.292;11.820;2022-08-18T13:46:43;24.67;;;4.25;;
67721;SDS011;58309;45.292;11.820;2022-08-18T13:49:19;26.90;;;4.40;;
67721;SDS011;58309;45.292;11.820;2022-08-18T13:51:47;23.08;;;4.00;;
67721;SDS011;58309;45.292;11.820;2022-08-18T13:54:24;22.33;;;4.40;;
67721;SDS011;58309;45.292;11.820;2022-08-18T13:56:51;20.90;;;3.72;;
67721;SDS011;58309;45.292;11.820;2022-08-18T13:59:17;21.88;;;4.13;;
67721;SDS011;58309;45.292;11.820;2022-08-18T14:01:45;21.90;;;3.90;;
67721;SDS011;58309;45.292;11.820;2022-08-18T14:04:12;25.42;;;4.30;;
67721;SDS011;58309;45.292;11.820;2022-08-18T14:06:38;24.23;;;4.35;;
67721;SDS011;58309;45.292;11.820;2022-08-18T14:09:04;17.75;;;3.97;;
67721;SDS011;58309;45.292;11.820;2022-08-18T14:11:30;16.60;;;3.10;;
67721;SDS011;58309;45.292;11.820;2022-08-18T14:13:58;22.10;;;3.28;;
67721;SDS011;58309;45.292;11.820;2022-08-18T14:16:25;14.75;;;2.72;;
67721;SDS011;58309;45.292;11.820;2022-08-18T14:18:51;15.23;;;3.28;;
67721;SDS011;58309;45.292;11.820;2022-08-18T14:21:38;15.40;;;3.33;;
67721;SDS011;58309;45.292;11.820;2022-08-18T14:24:25;12.30;;;2.35;;
67721;SDS011;58309;45.292;11.820;2022-08-18T14:27:09;15.30;;;2.85;;
67721;SDS011;58309;45.292;11.820;2022-08-18T14:29:35;11.18;;;2.42;;
67721;SDS011;58309;45.292;11.820;2022-08-18T14:32:02;13.13;;;2.92;;
67721;SDS011;58309;45.292;11.820;2022-08-18T14:34:28;14.55;;;2.35;;
67721;SDS011;58309;45.292;11.820;2022-08-18T14:36:53;10.05;;;1.88;;
67721;SDS011;58309;45.292;11.820;2022-08-18T14:39:19;8.82;;;2.15;;
67721;SDS011;58309;45.292;11.820;2022-08-18T14:41:44;11.95;;;2.50;;
67721;SDS011;58309;45.292;11.820;2022-08-18T14:44:10;8.90;;;2.08;;
67721;SDS011;58309;45.292;11.820;2022-08-18T14:46:37;9.48;;;1.95;;
67721;SDS011;58309;45.292;11.820;2022-08-18T14:49:03;8.10;;;1.90;;
67721;SDS011;58309;45.292;11.820;2022-08-18T14:51:30;8.20;;;2.10;;
67721;SDS011;58309;45.292;11.820;2022-08-18T14:53:56;7.45;;;2.08;;
67721;SDS011;58309;45.292;11.820;2022-08-18T14:56:22;8.50;;;1.95;;
67721;SDS011;58309;45.292;11.820;2022-08-18T14:58:47;9.43;;;1.80;;
67721;SDS011;58309;45.292;11.820;2022-08-18T15:01:13;11.68;;;2.40;;
67721;SDS011;58309;45.292;11.820;2022-08-18T15:03:39;11.55;;;2.10;;
67721;SDS011;58309;45.292;11.820;2022-08-18T15:06:05;13.93;;;2.42;;
67721;SDS011;58309;45.292;11.820;2022-08-18T15:08:34;8.57;;;2.33;;
67721;SDS011;58309;45.292;11.820;2022-08-18T15:11:00;14.18;;;3.30;;
67721;SDS011;58309;45.292;11.820;2022-08-18T15:13:27;8.45;;;2.30;;
67721;SDS011;58309;45.292;11.820;2022-08-18T15:15:53;9.23;;;2.22;;
67721;SDS011;58309;45.292;11.820;2022-08-18T15:18:19;9.38;;;2.22;;
67721;SDS011;58309;45.292;11.820;2022-08-18T15:20:45;10.65;;;2.10;;
67721;SDS011;58309;45.292;11.820;2022-08-18T15:23:29;10.27;;;2.45;;
67721;SDS011;58309;45.292;11.820;2022-08-18T15:26:16;6.97;;;1.80;;
67721;SDS011;58309;45.292;11.820;2022-08-18T15:28:44;11.43;;;1.83;;
67721;SDS011;58309;45.292;11.820;2022-08-18T15:31:10;5.45;;;1.70;;
67721;SDS011;58309;45.292;11.820;2022-08-18T15:33:35;7.63;;;1.90;;
67721;SDS011;58309;45.292;11.820;2022-08-18T15:36:01;8.23;;;2.10;;
67721;SDS011;58309;45.292;11.820;2022-08-18T15:38:28;8.43;;;1.80;;
67721;SDS011;58309;45.292;11.820;2022-08-18T15:40:55;6.63;;;1.85;;
67721;SDS011;58309;45.292;11.820;2022-08-18T15:43:22;8.07;;;1.67;;
67721;SDS011;58309;45.292;11.820;2022-08-18T15:45:49;6.60;;;2.10;;
67721;SDS011;58309;45.292;11.820;2022-08-18T15:48:16;7.55;;;1.92;;
67721;SDS011;58309;45.292;11.820;2022-08-18T15:50:43;6.88;;;2.05;;
67721;SDS011;58309;45.292;11.820;2022-08-18T15:53:13;5.53;;;1.92;;
67721;SDS011;58309;45.292;11.820;2022-08-18T15:55:40;7.45;;;1.95;;
67721;SDS011;58309;45.292;11.820;2022-08-18T15:58:06;4.45;;;1.70;;
67721;SDS011;58309;45.292;11.820;2022-08-18T16:00:33;7.50;;;2.00;;
67721;SDS011;58309;45.292;11.820;2022-08-18T16:03:00;5.38;;;1.77;;
67721;SDS011;58309;45.292;11.820;2022-08-18T16:05:33;10.55;;;2.35;;
67721;SDS011;58309;45.292;11.820;2022-08-18T16:08:01;5.60;;;2.13;;
67721;SDS011;58309;45.292;11.820;2022-08-18T16:10:28;6.32;;;1.85;;
67721;SDS011;58309;45.292;11.820;2022-08-18T16:12:56;4.05;;;2.15;;
67721;SDS011;58309;45.292;11.820;2022-08-18T16:15:25;7.25;;;1.98;;
67721;SDS011;58309;45.292;11.820;2022-08-18T16:17:52;6.40;;;2.03;;
67721;SDS011;58309;45.292;11.820;2022-08-18T16:20:19;8.38;;;2.13;;
67721;SDS011;58309;45.292;11.820;2022-08-18T16:25:22;5.15;;;2.20;;
67721;SDS011;58309;45.292;11.820;2022-08-18T16:27:48;8.10;;;2.17;;
67721;SDS011;58309;45.292;11.820;2022-08-18T16:30:15;10.52;;;2.15;;
67721;SDS011;58309;45.292;11.820;2022-08-18T16:32:43;8.73;;;2.25;;
67721;SDS011;58309;45.292;11.820;2022-08-18T16:35:09;8.00;;;2.20;;
67721;SDS011;58309;45.292;11.820;2022-08-18T16:37:35;4.88;;;1.95;;
67721;SDS011;58309;45.292;11.820;2022-08-18T16:40:01;6.70;;;2.42;;
67721;SDS011;58309;45.292;11.820;2022-08-18T16:42:27;8.55;;;2.53;;
67721;SDS011;58309;45.292;11.820;2022-08-18T16:44:59;6.13;;;2.10;;
67721;SDS011;58309;45.292;11.820;2022-08-18T16:47:26;7.25;;;2.08;;
67721;SDS011;58309;45.292;11.820;2022-08-18T16:49:52;5.85;;;1.90;;
67721;SDS011;58309;45.292;11.820;2022-08-18T16:52:19;7.25;;;2.08;;
67721;SDS011;58309;45.292;11.820;2022-08-18T16:54:45;6.40;;;1.83;;
67721;SDS011;58309;45.292;11.820;2022-08-18T16:57:11;8.65;;;2.15;;
67721;SDS011;58309;45.292;11.820;2022-08-18T16:59:37;6.15;;;2.10;;
67721;SDS011;58309;45.292;11.820;2022-08-18T17:02:22;7.10;;;2.03;;
67721;SDS011;58309;45.292;11.820;2022-08-18T17:05:07;7.55;;;1.95;;
67721;SDS011;58309;45.292;11.820;2022-08-18T17:07:34;9.05;;;1.80;;
67721;SDS011;58309;45.292;11.820;2022-08-18T17:10:00;6.70;;;2.00;;
67721;SDS011;58309;45.292;11.820;2022-08-18T17:12:27;7.20;;;2.17;;
67721;SDS011;58309;45.292;11.820;2022-08-18T17:14:54;4.25;;;1.77;;
67721;SDS011;58309;45.292;11.820;2022-08-18T17:17:20;5.38;;;1.88;;
67721;SDS011;58309;45.292;11.820;2022-08-18T17:19:46;8.30;;;2.15;;
67721;SDS011;58309;45.292;11.820;2022-08-18T17:22:12;6.15;;;2.22;;
67721;SDS011;58309;45.292;11.820;2022-08-18T17:24:39;6.10;;;2.10;;
67721;SDS011;58309;45.292;11.820;2022-08-18T17:34:53;7.97;;;2.55;;
67721;SDS011;58309;45.292;11.820;2022-08-18T17:37:43;5.28;;;2.00;;
67721;SDS011;58309;45.292;11.820;2022-08-18T17:40:21;7.50;;;2.40;;
67721;SDS011;58309;45.292;11.820;2022-08-18T17:42:50;7.50;;;2.00;;
67721;SDS011;58309;45.292;11.820;2022-08-18T17:45:17;10.00;;;2.55;;
67721;SDS011;58309;45.292;11.820;2022-08-18T17:50:24;10.02;;;2.40;;
67721;SDS011;58309;45.292;11.820;2022-08-18T17:53:11;6.32;;;1.90;;
67721;SDS011;58309;45.292;11.820;2022-08-18T17:55:40;5.97;;;2.38;;
67721;SDS011;58309;45.292;11.820;2022-08-18T17:58:19;6.68;;;2.33;;
67721;SDS011;58309;45.292;11.820;2022-08-18T18:00:50;8.65;;;2.40;;
67721;SDS011;58309;45.292;11.820;2022-08-18T18:03:15;9.98;;;2.40;;
67721;SDS011;58309;45.292;11.820;2022-08-18T18:05:42;9.32;;;2.80;;
67721;SDS011;58309;45.292;11.820;2022-08-18T18:08:13;9.07;;;2.08;;